sensor_id;sensor_type;location;lat;lon;timestamp;P1;durP1;ratioP1;P2;durP2;ratioP2
43646;SDS011;56152;49.996;18.980;2024-03-17T00:02:29;10.00;;;8.13;;
43646;SDS011;56152;49.996;18.980;2024-03-17T00:07:30;9.98;;;7.35;;
43646;SDS011;56152;49.996;18.980;2024-03-17T00:12:34;8.80;;;7.50;;
43646;SDS011;56152;49.996;18.980;2024-03-17T00:17:36;11.32;;;7.78;;
43646;SDS011;56152;49.996;18.980;2024-03-17T00:22:38;10.48;;;6.70;;
43646;SDS011;56152;49.996;18.980;2024-03-17T00:27:42;12.35;;;6.60;;
43646;SDS011;56152;49.996;18.980;2024-03-17T00:32:45;15.20;;;6.93;;
43646;SDS011;56152;49.996;18.980;2024-03-17T00:37:46;9.13;;;6.05;;
43646;SDS011;56152;49.996;18.980;2024-03-17T00:42:51;13.35;;;5.38;;
43646;SDS011;56152;49.996;18.980;2024-03-17T00:47:54;7.60;;;5.85;;
43646;SDS011;56152;49.996;18.980;2024-03-17T00:52:55;9.73;;;6.13;;
43646;SDS011;56152;49.996;18.980;2024-03-17T00:58:02;9.95;;;6.35;;
43646;SDS011;56152;49.996;18.980;2024-03-17T01:03:04;8.35;;;5.32;;
43646;SDS011;56152;49.996;18.980;2024-03-17T01:08:06;13.63;;;6.30;;
43646;SDS011;56152;49.996;18.980;2024-03-17T01:13:09;9.00;;;6.05;;
43646;SDS011;56152;49.996;18.980;2024-03-17T01:18:11;8.40;;;6.43;;
43646;SDS011;56152;49.996;18.980;2024-03-17T01:23:13;12.20;;;8.10;;
43646;SDS011;56152;49.996;18.980;2024-03-17T01:28:16;11.90;;;7.95;;
43646;SDS011;56152;49.996;18.980;2024-03-17T01:33:18;10.93;;;6.68;;
43646;SDS011;56152;49.996;18.980;2024-03-17T01:38:20;10.65;;;6.82;;
43646;SDS011;56152;49.996;18.980;2024-03-17T01:43:27;8.80;;;5.65;;
43646;SDS011;56152;49.996;18.980;2024-03-17T01:48:31;9.73;;;5.88;;
43646;SDS011;56152;49.996;18.980;2024-03-17T01:53:33;13.75;;;5.45;;
43646;SDS011;56152;49.996;18.980;2024-03-17T01:58:37;11.32;;;6.85;;
43646;SDS011;56152;49.996;18.980;2024-03-17T02:03:39;11.80;;;5.60;;
43646;SDS011;56152;49.996;18.980;2024-03-17T02:08:47;9.32;;;5.15;;
43646;SDS011;56152;49.996;18.980;2024-03-17T02:13:50;8.48;;;5.53;;
43646;SDS011;56152;49.996;18.980;2024-03-17T02:18:53;13.30;;;5.60;;
43646;SDS011;56152;49.996;18.980;2024-03-17T02:23:57;13.07;;;5.78;;
43646;SDS011;56152;49.996;18.980;2024-03-17T02:28:59;19.23;;;9.73;;
43646;SDS011;56152;49.996;18.980;2024-03-17T02:34:00;9.02;;;5.18;;
43646;SDS011;56152;49.996;18.980;2024-03-17T02:39:04;14.23;;;5.55;;
43646;SDS011;56152;49.996;18.980;2024-03-17T02:44:23;23.27;;;8.00;;
43646;SDS011;56152;49.996;18.980;2024-03-17T02:49:25;22.27;;;8.40;;
43646;SDS011;56152;49.996;18.980;2024-03-17T02:54:29;14.18;;;9.18;;
43646;SDS011;56152;49.996;18.980;2024-03-17T02:59:35;16.50;;;6.63;;
43646;SDS011;56152;49.996;18.980;2024-03-17T03:04:40;11.73;;;6.30;;
43646;SDS011;56152;49.996;18.980;2024-03-17T03:09:43;11.38;;;6.15;;
43646;SDS011;56152;49.996;18.980;2024-03-17T03:14:45;16.13;;;6.25;;
43646;SDS011;56152;49.996;18.980;2024-03-17T03:19:47;14.98;;;6.22;;
43646;SDS011;56152;49.996;18.980;2024-03-17T03:24:52;12.30;;;5.43;;
43646;SDS011;56152;49.996;18.980;2024-03-17T03:29:54;13.75;;;4.90;;
43646;SDS011;56152;49.996;18.980;2024-03-17T03:34:56;19.20;;;6.20;;
43646;SDS011;56152;49.996;18.980;2024-03-17T03:39:59;17.65;;;6.95;;
43646;SDS011;56152;49.996;18.980;2024-03-17T03:45:01;45.30;;;14.52;;
43646;SDS011;56152;49.996;18.980;2024-03-17T03:50:03;56.88;;;18.35;;
43646;SDS011;56152;49.996;18.980;2024-03-17T03:55:09;60.30;;;20.98;;
43646;SDS011;56152;49.996;18.980;2024-03-17T04:00:12;68.38;;;24.00;;
43646;SDS011;56152;49.996;18.980;2024-03-17T04:05:15;63.40;;;24.23;;
43646;SDS011;56152;49.996;18.980;2024-03-17T04:10:18;34.40;;;10.32;;
43646;SDS011;56152;49.996;18.980;2024-03-17T04:15:20;41.97;;;9.57;;
43646;SDS011;56152;49.996;18.980;2024-03-17T04:20:22;53.95;;;14.80;;
43646;SDS011;56152;49.996;18.980;2024-03-17T04:25:25;25.13;;;8.73;;
43646;SDS011;56152;49.996;18.980;2024-03-17T04:30:29;15.40;;;6.20;;
43646;SDS011;56152;49.996;18.980;2024-03-17T04:35:31;19.93;;;7.27;;
43646;SDS011;56152;49.996;18.980;2024-03-17T04:40:41;28.17;;;9.38;;
43646;SDS011;56152;49.996;18.980;2024-03-17T04:45:43;26.77;;;7.53;;
43646;SDS011;56152;49.996;18.980;2024-03-17T04:50:46;30.70;;;11.27;;
43646;SDS011;56152;49.996;18.980;2024-03-17T04:55:57;33.25;;;10.15;;
43646;SDS011;56152;49.996;18.980;2024-03-17T05:01:03;19.70;;;6.20;;
43646;SDS011;56152;49.996;18.980;2024-03-17T05:06:06;13.90;;;4.83;;
43646;SDS011;56152;49.996;18.980;2024-03-17T05:11:09;13.60;;;4.53;;
43646;SDS011;56152;49.996;18.980;2024-03-17T05:16:12;14.88;;;6.20;;
43646;SDS011;56152;49.996;18.980;2024-03-17T05:21:13;9.70;;;5.15;;
43646;SDS011;56152;49.996;18.980;2024-03-17T05:26:18;21.13;;;8.40;;
43646;SDS011;56152;49.996;18.980;2024-03-17T05:31:23;16.00;;;6.13;;
43646;SDS011;56152;49.996;18.980;2024-03-17T05:36:25;17.53;;;5.93;;
43646;SDS011;56152;49.996;18.980;2024-03-17T05:41:34;25.00;;;9.52;;
43646;SDS011;56152;49.996;18.980;2024-03-17T05:46:36;20.88;;;9.40;;
43646;SDS011;56152;49.996;18.980;2024-03-17T05:51:38;25.58;;;10.75;;
43646;SDS011;56152;49.996;18.980;2024-03-17T05:56:42;24.03;;;10.13;;
43646;SDS011;56152;49.996;18.980;2024-03-17T06:01:44;21.52;;;10.00;;
43646;SDS011;56152;49.996;18.980;2024-03-17T06:06:46;17.90;;;6.65;;
43646;SDS011;56152;49.996;18.980;2024-03-17T06:11:50;23.35;;;7.05;;
43646;SDS011;56152;49.996;18.980;2024-03-17T06:16:52;20.83;;;7.13;;
43646;SDS011;56152;49.996;18.980;2024-03-17T06:21:54;18.02;;;6.75;;
43646;SDS011;56152;49.996;18.980;2024-03-17T06:26:57;18.42;;;8.57;;
43646;SDS011;56152;49.996;18.980;2024-03-17T06:31:59;10.57;;;6.35;;
43646;SDS011;56152;49.996;18.980;2024-03-17T06:37:03;13.07;;;5.82;;
43646;SDS011;56152;49.996;18.980;2024-03-17T06:42:06;14.15;;;6.50;;
43646;SDS011;56152;49.996;18.980;2024-03-17T06:47:09;16.85;;;5.65;;
43646;SDS011;56152;49.996;18.980;2024-03-17T06:52:13;15.88;;;6.63;;
43646;SDS011;56152;49.996;18.980;2024-03-17T06:57:16;15.07;;;6.45;;
43646;SDS011;56152;49.996;18.980;2024-03-17T07:02:18;14.38;;;5.75;;
43646;SDS011;56152;49.996;18.980;2024-03-17T07:07:20;14.60;;;6.72;;
43646;SDS011;56152;49.996;18.980;2024-03-17T07:12:23;10.73;;;5.95;;
43646;SDS011;56152;49.996;18.980;2024-03-17T07:17:25;12.93;;;5.72;;
43646;SDS011;56152;49.996;18.980;2024-03-17T07:22:26;13.18;;;5.10;;
43646;SDS011;56152;49.996;18.980;2024-03-17T07:27:32;10.05;;;3.95;;
43646;SDS011;56152;49.996;18.980;2024-03-17T07:32:38;11.25;;;3.70;;
43646;SDS011;56152;49.996;18.980;2024-03-17T07:37:40;12.10;;;4.07;;
43646;SDS011;56152;49.996;18.980;2024-03-17T07:42:43;8.80;;;3.38;;
43646;SDS011;56152;49.996;18.980;2024-03-17T07:47:50;8.73;;;2.92;;
43646;SDS011;56152;49.996;18.980;2024-03-17T07:52:51;12.70;;;3.80;;
43646;SDS011;56152;49.996;18.980;2024-03-17T07:57:55;9.10;;;3.40;;
43646;SDS011;56152;49.996;18.980;2024-03-17T08:02:56;11.50;;;5.22;;
43646;SDS011;56152;49.996;18.980;2024-03-17T08:07:58;7.97;;;2.97;;
43646;SDS011;56152;49.996;18.980;2024-03-17T08:13:02;12.70;;;4.03;;
43646;SDS011;56152;49.996;18.980;2024-03-17T08:18:05;10.25;;;3.13;;
43646;SDS011;56152;49.996;18.980;2024-03-17T08:23:08;12.75;;;3.22;;
43646;SDS011;56152;49.996;18.980;2024-03-17T08:28:12;8.00;;;3.33;;
43646;SDS011;56152;49.996;18.980;2024-03-17T08:33:14;6.65;;;3.05;;
43646;SDS011;56152;49.996;18.980;2024-03-17T08:38:15;8.15;;;3.10;;
43646;SDS011;56152;49.996;18.980;2024-03-17T08:43:21;11.05;;;3.70;;
43646;SDS011;56152;49.996;18.980;2024-03-17T08:48:26;7.63;;;3.00;;
43646;SDS011;56152;49.996;18.980;2024-03-17T08:53:30;10.73;;;3.00;;
43646;SDS011;56152;49.996;18.980;2024-03-17T08:58:35;8.27;;;3.58;;
43646;SDS011;56152;49.996;18.980;2024-03-17T09:03:37;7.40;;;2.75;;
43646;SDS011;56152;49.996;18.980;2024-03-17T09:08:40;13.10;;;4.72;;
43646;SDS011;56152;49.996;18.980;2024-03-17T09:14:02;7.75;;;2.90;;
43646;SDS011;56152;49.996;18.980;2024-03-17T09:19:23;12.45;;;4.43;;
43646;SDS011;56152;49.996;18.980;2024-03-17T09:24:29;9.50;;;3.40;;
43646;SDS011;56152;49.996;18.980;2024-03-17T09:35:27;6.18;;;2.63;;
43646;SDS011;56152;49.996;18.980;2024-03-17T09:40:29;3.88;;;2.00;;
43646;SDS011;56152;49.996;18.980;2024-03-17T09:45:32;10.15;;;3.00;;
43646;SDS011;56152;49.996;18.980;2024-03-17T09:50:35;8.75;;;4.40;;
43646;SDS011;56152;49.996;18.980;2024-03-17T09:55:37;10.57;;;3.13;;
43646;SDS011;56152;49.996;18.980;2024-03-17T10:00:41;6.25;;;2.40;;
43646;SDS011;56152;49.996;18.980;2024-03-17T10:05:43;8.85;;;2.80;;
43646;SDS011;56152;49.996;18.980;2024-03-17T10:10:44;6.57;;;2.33;;
43646;SDS011;56152;49.996;18.980;2024-03-17T10:15:55;9.33;;;3.73;;
43646;SDS011;56152;49.996;18.980;2024-03-17T10:20:58;6.85;;;2.22;;
43646;SDS011;56152;49.996;18.980;2024-03-17T10:26:01;5.10;;;1.95;;
43646;SDS011;56152;49.996;18.980;2024-03-17T10:31:15;7.78;;;2.30;;
43646;SDS011;56152;49.996;18.980;2024-03-17T10:36:17;7.68;;;2.60;;
43646;SDS011;56152;49.996;18.980;2024-03-17T10:41:19;5.82;;;2.75;;
43646;SDS011;56152;49.996;18.980;2024-03-17T10:46:26;8.32;;;2.70;;
43646;SDS011;56152;49.996;18.980;2024-03-17T10:51:29;7.40;;;3.35;;
43646;SDS011;56152;49.996;18.980;2024-03-17T10:56:42;5.68;;;2.50;;
43646;SDS011;56152;49.996;18.980;2024-03-17T11:01:46;6.93;;;2.67;;
43646;SDS011;56152;49.996;18.980;2024-03-17T11:06:49;5.93;;;2.85;;
43646;SDS011;56152;49.996;18.980;2024-03-17T11:11:51;9.43;;;4.55;;
43646;SDS011;56152;49.996;18.980;2024-03-17T11:16:55;11.20;;;3.40;;
43646;SDS011;56152;49.996;18.980;2024-03-17T11:21:59;12.07;;;3.00;;
43646;SDS011;56152;49.996;18.980;2024-03-17T11:27:42;6.05;;;2.97;;
43646;SDS011;56152;49.996;18.980;2024-03-17T11:32:44;6.82;;;3.55;;
43646;SDS011;56152;49.996;18.980;2024-03-17T11:37:46;5.40;;;2.50;;
43646;SDS011;56152;49.996;18.980;2024-03-17T11:43:03;6.15;;;3.40;;
43646;SDS011;56152;49.996;18.980;2024-03-17T11:48:09;9.13;;;3.85;;
43646;SDS011;56152;49.996;18.980;2024-03-17T11:53:16;7.35;;;3.40;;
43646;SDS011;56152;49.996;18.980;2024-03-17T11:58:22;6.82;;;3.03;;
43646;SDS011;56152;49.996;18.980;2024-03-17T12:03:25;3.20;;;2.03;;
43646;SDS011;56152;49.996;18.980;2024-03-17T12:08:27;10.93;;;4.32;;
43646;SDS011;56152;49.996;18.980;2024-03-17T12:13:34;10.55;;;5.20;;
43646;SDS011;56152;49.996;18.980;2024-03-17T12:18:36;6.80;;;2.78;;
43646;SDS011;56152;49.996;18.980;2024-03-17T12:23:43;8.43;;;3.10;;
43646;SDS011;56152;49.996;18.980;2024-03-17T12:28:46;5.53;;;2.25;;
43646;SDS011;56152;49.996;18.980;2024-03-17T12:33:50;6.43;;;2.80;;
43646;SDS011;56152;49.996;18.980;2024-03-17T12:38:52;10.48;;;3.70;;
43646;SDS011;56152;49.996;18.980;2024-03-17T12:43:56;7.70;;;2.15;;
43646;SDS011;56152;49.996;18.980;2024-03-17T12:48:58;6.70;;;2.80;;
43646;SDS011;56152;49.996;18.980;2024-03-17T12:54:13;4.78;;;2.17;;
43646;SDS011;56152;49.996;18.980;2024-03-17T12:59:19;6.10;;;2.72;;
43646;SDS011;56152;49.996;18.980;2024-03-17T13:04:39;6.15;;;2.55;;
43646;SDS011;56152;49.996;18.980;2024-03-17T13:09:40;5.90;;;2.30;;
43646;SDS011;56152;49.996;18.980;2024-03-17T13:14:44;6.20;;;2.28;;
43646;SDS011;56152;49.996;18.980;2024-03-17T13:19:46;5.60;;;2.58;;
43646;SDS011;56152;49.996;18.980;2024-03-17T13:24:53;5.75;;;2.17;;
43646;SDS011;56152;49.996;18.980;2024-03-17T13:29:57;4.72;;;1.77;;
43646;SDS011;56152;49.996;18.980;2024-03-17T13:34:59;4.82;;;2.58;;
43646;SDS011;56152;49.996;18.980;2024-03-17T13:40:01;8.32;;;3.78;;
43646;SDS011;56152;49.996;18.980;2024-03-17T13:45:09;5.65;;;2.35;;
43646;SDS011;56152;49.996;18.980;2024-03-17T13:50:12;10.45;;;3.45;;
43646;SDS011;56152;49.996;18.980;2024-03-17T13:55:15;4.82;;;2.15;;
43646;SDS011;56152;49.996;18.980;2024-03-17T14:00:20;4.78;;;1.95;;
43646;SDS011;56152;49.996;18.980;2024-03-17T14:05:23;6.82;;;2.30;;
43646;SDS011;56152;49.996;18.980;2024-03-17T14:10:26;8.02;;;2.70;;
43646;SDS011;56152;49.996;18.980;2024-03-17T14:15:29;5.72;;;2.20;;
43646;SDS011;56152;49.996;18.980;2024-03-17T14:20:31;8.40;;;2.85;;
43646;SDS011;56152;49.996;18.980;2024-03-17T14:25:34;5.07;;;2.33;;
43646;SDS011;56152;49.996;18.980;2024-03-17T14:30:37;8.00;;;2.47;;
43646;SDS011;56152;49.996;18.980;2024-03-17T14:35:38;7.07;;;2.45;;
43646;SDS011;56152;49.996;18.980;2024-03-17T14:40:41;6.68;;;2.40;;
43646;SDS011;56152;49.996;18.980;2024-03-17T14:45:45;9.05;;;3.75;;
43646;SDS011;56152;49.996;18.980;2024-03-17T14:50:47;9.95;;;3.17;;
43646;SDS011;56152;49.996;18.980;2024-03-17T14:55:49;7.53;;;2.75;;
43646;SDS011;56152;49.996;18.980;2024-03-17T15:00:53;8.90;;;3.50;;
43646;SDS011;56152;49.996;18.980;2024-03-17T15:05:55;6.07;;;2.70;;
43646;SDS011;56152;49.996;18.980;2024-03-17T15:10:57;6.05;;;2.78;;
43646;SDS011;56152;49.996;18.980;2024-03-17T15:16:01;8.15;;;3.72;;
43646;SDS011;56152;49.996;18.980;2024-03-17T15:21:04;9.10;;;4.32;;
43646;SDS011;56152;49.996;18.980;2024-03-17T15:26:06;9.35;;;5.35;;
43646;SDS011;56152;49.996;18.980;2024-03-17T15:31:11;9.18;;;3.92;;
43646;SDS011;56152;49.996;18.980;2024-03-17T15:36:15;9.05;;;3.33;;
43646;SDS011;56152;49.996;18.980;2024-03-17T15:41:17;10.20;;;4.20;;
43646;SDS011;56152;49.996;18.980;2024-03-17T15:46:20;9.85;;;3.38;;
43646;SDS011;56152;49.996;18.980;2024-03-17T15:51:22;8.30;;;4.85;;
43646;SDS011;56152;49.996;18.980;2024-03-17T15:56:24;6.35;;;3.08;;
43646;SDS011;56152;49.996;18.980;2024-03-17T16:01:28;12.07;;;3.65;;
43646;SDS011;56152;49.996;18.980;2024-03-17T16:06:30;9.60;;;3.05;;
43646;SDS011;56152;49.996;18.980;2024-03-17T16:11:36;6.93;;;2.90;;
43646;SDS011;56152;49.996;18.980;2024-03-17T16:16:41;10.80;;;3.25;;
43646;SDS011;56152;49.996;18.980;2024-03-17T16:21:45;7.10;;;2.85;;
43646;SDS011;56152;49.996;18.980;2024-03-17T16:26:51;11.75;;;3.38;;
43646;SDS011;56152;49.996;18.980;2024-03-17T16:31:56;10.38;;;2.97;;
43646;SDS011;56152;49.996;18.980;2024-03-17T16:37:00;15.57;;;9.05;;
43646;SDS011;56152;49.996;18.980;2024-03-17T16:42:02;13.88;;;5.65;;
43646;SDS011;56152;49.996;18.980;2024-03-17T16:47:23;18.45;;;8.68;;
43646;SDS011;56152;49.996;18.980;2024-03-17T16:52:31;6.40;;;3.40;;
43646;SDS011;56152;49.996;18.980;2024-03-17T16:57:34;7.40;;;3.05;;
43646;SDS011;56152;49.996;18.980;2024-03-17T17:02:38;11.52;;;4.57;;
43646;SDS011;56152;49.996;18.980;2024-03-17T17:07:48;14.05;;;4.03;;
43646;SDS011;56152;49.996;18.980;2024-03-17T17:12:50;9.38;;;3.47;;
43646;SDS011;56152;49.996;18.980;2024-03-17T17:17:55;11.98;;;4.82;;
43646;SDS011;56152;49.996;18.980;2024-03-17T17:22:57;11.02;;;4.43;;
43646;SDS011;56152;49.996;18.980;2024-03-17T17:27:59;15.25;;;4.63;;
43646;SDS011;56152;49.996;18.980;2024-03-17T17:33:03;11.60;;;6.55;;
43646;SDS011;56152;49.996;18.980;2024-03-17T17:38:06;11.13;;;5.40;;
43646;SDS011;56152;49.996;18.980;2024-03-17T17:43:08;15.68;;;5.85;;
43646;SDS011;56152;49.996;18.980;2024-03-17T17:48:13;21.27;;;8.90;;
43646;SDS011;56152;49.996;18.980;2024-03-17T17:53:14;18.38;;;6.22;;
43646;SDS011;56152;49.996;18.980;2024-03-17T17:58:18;11.23;;;5.03;;
43646;SDS011;56152;49.996;18.980;2024-03-17T18:03:22;14.13;;;5.65;;
43646;SDS011;56152;49.996;18.980;2024-03-17T18:08:25;13.95;;;6.88;;
43646;SDS011;56152;49.996;18.980;2024-03-17T18:13:28;18.63;;;7.00;;
43646;SDS011;56152;49.996;18.980;2024-03-17T18:18:34;16.42;;;6.07;;
43646;SDS011;56152;49.996;18.980;2024-03-17T18:29:36;16.77;;;5.95;;
43646;SDS011;56152;49.996;18.980;2024-03-17T18:34:41;15.18;;;6.55;;
43646;SDS011;56152;49.996;18.980;2024-03-17T18:39:43;13.63;;;6.68;;
43646;SDS011;56152;49.996;18.980;2024-03-17T18:44:46;37.40;;;22.38;;
43646;SDS011;56152;49.996;18.980;2024-03-17T18:49:51;43.75;;;29.00;;
43646;SDS011;56152;49.996;18.980;2024-03-17T18:54:54;52.50;;;35.50;;
43646;SDS011;56152;49.996;18.980;2024-03-17T18:59:59;41.55;;;26.17;;
43646;SDS011;56152;49.996;18.980;2024-03-17T19:05:03;36.22;;;18.88;;
43646;SDS011;56152;49.996;18.980;2024-03-17T19:10:06;46.67;;;20.08;;
43646;SDS011;56152;49.996;18.980;2024-03-17T19:15:12;47.20;;;18.95;;
43646;SDS011;56152;49.996;18.980;2024-03-17T19:20:15;43.65;;;17.75;;
43646;SDS011;56152;49.996;18.980;2024-03-17T19:25:17;38.25;;;16.38;;
43646;SDS011;56152;49.996;18.980;2024-03-17T19:30:19;37.80;;;15.90;;
43646;SDS011;56152;49.996;18.980;2024-03-17T19:35:25;39.85;;;15.75;;
43646;SDS011;56152;49.996;18.980;2024-03-17T19:40:27;39.67;;;18.33;;
43646;SDS011;56152;49.996;18.980;2024-03-17T19:45:29;44.60;;;18.70;;
43646;SDS011;56152;49.996;18.980;2024-03-17T19:50:33;44.80;;;20.20;;
43646;SDS011;56152;49.996;18.980;2024-03-17T19:55:35;46.40;;;19.08;;
43646;SDS011;56152;49.996;18.980;2024-03-17T20:00:37;49.22;;;22.90;;
43646;SDS011;56152;49.996;18.980;2024-03-17T20:05:43;64.47;;;27.13;;
43646;SDS011;56152;49.996;18.980;2024-03-17T20:10:46;67.10;;;26.80;;
43646;SDS011;56152;49.996;18.980;2024-03-17T20:15:49;41.63;;;16.73;;
43646;SDS011;56152;49.996;18.980;2024-03-17T20:20:53;28.35;;;12.10;;
43646;SDS011;56152;49.996;18.980;2024-03-17T20:25:54;35.33;;;15.00;;
43646;SDS011;56152;49.996;18.980;2024-03-17T20:30:56;50.72;;;19.35;;
43646;SDS011;56152;49.996;18.980;2024-03-17T20:36:01;43.92;;;18.48;;
43646;SDS011;56152;49.996;18.980;2024-03-17T20:41:03;49.60;;;19.92;;
43646;SDS011;56152;49.996;18.980;2024-03-17T20:46:05;50.33;;;22.50;;
43646;SDS011;56152;49.996;18.980;2024-03-17T20:51:09;62.30;;;24.40;;
43646;SDS011;56152;49.996;18.980;2024-03-17T20:56:11;57.83;;;20.85;;
43646;SDS011;56152;49.996;18.980;2024-03-17T21:01:15;41.60;;;16.80;;
43646;SDS011;56152;49.996;18.980;2024-03-17T21:06:19;28.55;;;12.68;;
43646;SDS011;56152;49.996;18.980;2024-03-17T21:11:24;46.92;;;18.38;;
43646;SDS011;56152;49.996;18.980;2024-03-17T21:16:29;49.45;;;18.88;;
43646;SDS011;56152;49.996;18.980;2024-03-17T21:21:33;35.78;;;12.98;;
43646;SDS011;56152;49.996;18.980;2024-03-17T21:26:35;19.67;;;8.50;;
43646;SDS011;56152;49.996;18.980;2024-03-17T21:31:38;33.38;;;14.30;;
43646;SDS011;56152;49.996;18.980;2024-03-17T21:36:42;18.92;;;7.20;;
43646;SDS011;56152;49.996;18.980;2024-03-17T21:41:44;14.75;;;6.10;;
43646;SDS011;56152;49.996;18.980;2024-03-17T21:46:48;16.20;;;6.15;;
43646;SDS011;56152;49.996;18.980;2024-03-17T21:51:52;9.30;;;5.13;;
43646;SDS011;56152;49.996;18.980;2024-03-17T21:56:57;10.27;;;4.32;;
43646;SDS011;56152;49.996;18.980;2024-03-17T22:02:00;10.27;;;4.67;;
43646;SDS011;56152;49.996;18.980;2024-03-17T22:07:07;8.00;;;4.22;;
43646;SDS011;56152;49.996;18.980;2024-03-17T22:12:11;10.00;;;4.13;;
43646;SDS011;56152;49.996;18.980;2024-03-17T22:17:14;9.65;;;4.55;;
43646;SDS011;56152;49.996;18.980;2024-03-17T22:22:18;6.93;;;4.10;;
43646;SDS011;56152;49.996;18.980;2024-03-17T22:27:20;7.95;;;4.18;;
43646;SDS011;56152;49.996;18.980;2024-03-17T22:32:26;6.43;;;4.13;;
43646;SDS011;56152;49.996;18.980;2024-03-17T22:37:30;9.03;;;4.53;;
43646;SDS011;56152;49.996;18.980;2024-03-17T22:42:31;7.50;;;4.28;;
43646;SDS011;56152;49.996;18.980;2024-03-17T22:47:33;10.50;;;5.03;;
43646;SDS011;56152;49.996;18.980;2024-03-17T22:52:38;8.40;;;4.60;;
43646;SDS011;56152;49.996;18.980;2024-03-17T22:57:40;9.82;;;5.13;;
43646;SDS011;56152;49.996;18.980;2024-03-17T23:02:42;9.48;;;4.93;;
43646;SDS011;56152;49.996;18.980;2024-03-17T23:07:46;11.57;;;4.93;;
43646;SDS011;56152;49.996;18.980;2024-03-17T23:12:48;12.43;;;4.75;;
43646;SDS011;56152;49.996;18.980;2024-03-17T23:17:50;11.10;;;4.88;;
43646;SDS011;56152;49.996;18.980;2024-03-17T23:22:54;11.90;;;5.50;;
43646;SDS011;56152;49.996;18.980;2024-03-17T23:27:55;10.00;;;5.43;;
43646;SDS011;56152;49.996;18.980;2024-03-17T23:32:57;10.27;;;5.60;;
43646;SDS011;56152;49.996;18.980;2024-03-17T23:38:02;12.57;;;5.57;;
43646;SDS011;56152;49.996;18.980;2024-03-17T23:43:05;9.77;;;5.72;;
43646;SDS011;56152;49.996;18.980;2024-03-17T23:48:11;9.20;;;4.60;;
43646;SDS011;56152;49.996;18.980;2024-03-17T23:53:14;11.30;;;5.57;;
43646;SDS011;56152;49.996;18.980;2024-03-17T23:58:16;9.87;;;5.30;;
